sensor_id;sensor_type;location;lat;lon;timestamp;pressure;altitude;pressure_sealevel;temperature;humidity
67052;BME280;53957;47.222;18.670;2024-03-17T07:54:57;100743.62;;;12.19;68.57
67052;BME280;53957;47.222;18.670;2024-03-17T07:57:59;100738.37;;;12.09;69.17
67052;BME280;53957;47.222;18.670;2024-03-17T08:01:06;100733.59;;;12.35;68.49
67052;BME280;53957;47.222;18.670;2024-03-17T08:04:08;100735.19;;;12.66;70.27
67052;BME280;53957;47.222;18.670;2024-03-17T08:07:13;100730.00;;;12.16;71.82
67052;BME280;53957;47.222;18.670;2024-03-17T08:10:15;100731.28;;;12.53;70.96
67052;BME280;53957;47.222;18.670;2024-03-17T08:13:20;100737.69;;;12.28;68.98
67052;BME280;53957;47.222;18.670;2024-03-17T08:16:22;100733.81;;;12.39;69.48
67052;BME280;53957;47.222;18.670;2024-03-17T08:19:24;100739.72;;;12.65;67.76
67052;BME280;53957;47.222;18.670;2024-03-17T08:22:26;100733.94;;;12.53;61.90
67052;BME280;53957;47.222;18.670;2024-03-17T08:25:28;100728.87;;;12.22;63.09
67052;BME280;53957;47.222;18.670;2024-03-17T08:28:30;100732.34;;;11.88;68.07
67052;BME280;53957;47.222;18.670;2024-03-17T08:31:33;100735.66;;;12.14;70.32
67052;BME280;53957;47.222;18.670;2024-03-17T08:34:35;100732.19;;;12.14;64.40
67052;BME280;53957;47.222;18.670;2024-03-17T08:37:37;100719.88;;;12.13;63.73
67052;BME280;53957;47.222;18.670;2024-03-17T08:40:39;100723.78;;;12.26;64.82
67052;BME280;53957;47.222;18.670;2024-03-17T08:43:41;100727.50;;;12.30;63.81
67052;BME280;53957;47.222;18.670;2024-03-17T08:46:44;100740.62;;;11.86;65.99
67052;BME280;53957;47.222;18.670;2024-03-17T08:49:47;100735.53;;;11.45;72.08
67052;BME280;53957;47.222;18.670;2024-03-17T08:52:52;100721.41;;;11.84;69.01
67052;BME280;53957;47.222;18.670;2024-03-17T08:55:55;100724.84;;;12.24;71.85
67052;BME280;53957;47.222;18.670;2024-03-17T08:59:05;100747.41;;;12.72;68.38
67052;BME280;53957;47.222;18.670;2024-03-17T09:02:13;100736.19;;;12.70;64.71
67052;BME280;53957;47.222;18.670;2024-03-17T09:05:40;100740.66;;;13.04;61.75
67052;BME280;53957;47.222;18.670;2024-03-17T09:09:02;100735.47;;;12.64;62.61
67052;BME280;53957;47.222;18.670;2024-03-17T09:12:05;100742.28;;;13.24;60.88
67052;BME280;53957;47.222;18.670;2024-03-17T09:15:07;100738.31;;;12.73;61.20
67052;BME280;53957;47.222;18.670;2024-03-17T09:18:10;100742.88;;;12.97;62.70
67052;BME280;53957;47.222;18.670;2024-03-17T09:21:12;100743.13;;;13.63;61.87
67052;BME280;53957;47.222;18.670;2024-03-17T09:24:15;100736.78;;;13.34;61.05
67052;BME280;53957;47.222;18.670;2024-03-17T09:27:17;100742.81;;;13.02;59.99
67052;BME280;53957;47.222;18.670;2024-03-17T09:30:22;100739.75;;;13.33;59.64
67052;BME280;53957;47.222;18.670;2024-03-17T09:33:25;100742.25;;;12.81;59.64
67052;BME280;53957;47.222;18.670;2024-03-17T09:36:30;100754.00;;;13.28;59.82
67052;BME280;53957;47.222;18.670;2024-03-17T09:39:32;100746.66;;;13.15;62.88
67052;BME280;53957;47.222;18.670;2024-03-17T09:42:35;100752.28;;;13.62;59.88
67052;BME280;53957;47.222;18.670;2024-03-17T09:45:37;100768.28;;;13.67;58.37
67052;BME280;53957;47.222;18.670;2024-03-17T09:48:39;100751.78;;;12.63;57.32
67052;BME280;53957;47.222;18.670;2024-03-17T09:51:42;100746.97;;;12.65;56.59
67052;BME280;53957;47.222;18.670;2024-03-17T10:02:03;100742.50;;;13.03;57.57
67052;BME280;53957;47.222;18.670;2024-03-17T10:05:21;100740.38;;;13.68;54.05
67052;BME280;53957;47.222;18.670;2024-03-17T10:08:23;100748.56;;;13.39;53.70
67052;BME280;53957;47.222;18.670;2024-03-17T10:11:34;100735.47;;;13.32;54.32
67052;BME280;53957;47.222;18.670;2024-03-17T10:15:10;100731.41;;;13.34;51.99
67052;BME280;53957;47.222;18.670;2024-03-17T10:18:23;100732.91;;;14.17;50.14
67052;BME280;53957;47.222;18.670;2024-03-17T10:21:26;100724.84;;;14.50;54.75
67052;BME280;53957;47.222;18.670;2024-03-17T10:24:31;100727.47;;;13.70;51.71
67052;BME280;53957;47.222;18.670;2024-03-17T10:27:43;100724.81;;;14.36;50.41
67052;BME280;53957;47.222;18.670;2024-03-17T10:30:59;100715.47;;;14.00;51.27
67052;BME280;53957;47.222;18.670;2024-03-17T10:34:02;100710.25;;;14.09;48.84
67052;BME280;53957;47.222;18.670;2024-03-17T10:37:09;100712.16;;;13.90;49.79
67052;BME280;53957;47.222;18.670;2024-03-17T10:40:15;100697.81;;;13.04;50.87
67052;BME280;53957;47.222;18.670;2024-03-17T10:43:17;100686.31;;;13.23;51.51
67052;BME280;53957;47.222;18.670;2024-03-17T10:46:20;100688.69;;;13.81;49.07
67052;BME280;53957;47.222;18.670;2024-03-17T10:49:32;100690.47;;;13.72;50.35
67052;BME280;53957;47.222;18.670;2024-03-17T10:52:36;100684.28;;;13.72;49.14
67052;BME280;53957;47.222;18.670;2024-03-17T10:55:46;100692.19;;;13.63;48.95
67052;BME280;53957;47.222;18.670;2024-03-17T10:58:53;100686.47;;;13.50;47.49
67052;BME280;53957;47.222;18.670;2024-03-17T11:02:00;100687.94;;;13.95;49.79
67052;BME280;53957;47.222;18.670;2024-03-17T11:08:16;100687.69;;;13.77;47.37
67052;BME280;53957;47.222;18.670;2024-03-17T11:11:35;100699.84;;;13.89;47.70
67052;BME280;53957;47.222;18.670;2024-03-17T11:14:37;100695.13;;;13.99;46.78
67052;BME280;53957;47.222;18.670;2024-03-17T11:17:40;100681.25;;;14.11;49.07
67052;BME280;53957;47.222;18.670;2024-03-17T11:20:58;100697.97;;;14.36;45.91
67052;BME280;53957;47.222;18.670;2024-03-17T11:24:02;100691.75;;;14.55;45.89
67052;BME280;53957;47.222;18.670;2024-03-17T11:27:42;100694.84;;;14.76;44.50
67052;BME280;53957;47.222;18.670;2024-03-17T11:30:50;100684.25;;;14.38;43.81
67052;BME280;53957;47.222;18.670;2024-03-17T11:37:42;100677.63;;;14.02;44.62
67052;BME280;53957;47.222;18.670;2024-03-17T11:40:44;100683.84;;;14.16;41.01
67052;BME280;53957;47.222;18.670;2024-03-17T11:43:47;100686.41;;;14.08;42.18
67052;BME280;53957;47.222;18.670;2024-03-17T11:47:02;100680.34;;;14.16;41.72
67052;BME280;53957;47.222;18.670;2024-03-17T11:50:09;100679.22;;;14.03;42.81
67052;BME280;53957;47.222;18.670;2024-03-17T11:53:12;100667.66;;;13.89;42.16
67052;BME280;53957;47.222;18.670;2024-03-17T11:56:23;100669.75;;;14.25;41.01
67052;BME280;53957;47.222;18.670;2024-03-17T11:59:25;100671.09;;;14.08;38.22
67052;BME280;53957;47.222;18.670;2024-03-17T12:02:30;100676.28;;;14.18;38.30
67052;BME280;53957;47.222;18.670;2024-03-17T12:05:32;100666.78;;;14.40;36.51
67052;BME280;53957;47.222;18.670;2024-03-17T12:08:34;100669.25;;;13.90;35.31
67052;BME280;53957;47.222;18.670;2024-03-17T12:11:36;100671.78;;;13.67;36.00
67052;BME280;53957;47.222;18.670;2024-03-17T12:14:39;100677.34;;;13.51;34.88
67052;BME280;53957;47.222;18.670;2024-03-17T12:17:41;100676.63;;;13.98;35.98
67052;BME280;53957;47.222;18.670;2024-03-17T12:20:47;100659.75;;;13.97;36.70
67052;BME280;53957;47.222;18.670;2024-03-17T12:23:50;100664.66;;;13.76;35.81
67052;BME280;53957;47.222;18.670;2024-03-17T12:26:54;100670.91;;;14.18;36.04
67052;BME280;53957;47.222;18.670;2024-03-17T12:30:01;100663.87;;;13.76;37.43
67052;BME280;53957;47.222;18.670;2024-03-17T12:33:03;100667.41;;;13.33;35.46
67052;BME280;53957;47.222;18.670;2024-03-17T12:36:06;100665.25;;;13.35;38.14
67052;BME280;53957;47.222;18.670;2024-03-17T12:39:24;100654.88;;;13.66;38.22
67052;BME280;53957;47.222;18.670;2024-03-17T12:42:28;100651.16;;;13.81;38.09
67052;BME280;53957;47.222;18.670;2024-03-17T12:45:30;100648.59;;;13.57;39.18
67052;BME280;53957;47.222;18.670;2024-03-17T12:48:32;100643.69;;;14.11;38.42
67052;BME280;53957;47.222;18.670;2024-03-17T12:51:34;100645.66;;;13.40;39.58
67052;BME280;53957;47.222;18.670;2024-03-17T12:54:38;100626.53;;;13.79;38.42
67052;BME280;53957;47.222;18.670;2024-03-17T12:57:40;100624.19;;;13.92;37.54
67052;BME280;53957;47.222;18.670;2024-03-17T13:01:05;100623.44;;;14.33;39.28
67052;BME280;53957;47.222;18.670;2024-03-17T13:04:07;100611.78;;;13.96;40.14
67052;BME280;53957;47.222;18.670;2024-03-17T13:07:13;100617.41;;;13.80;40.02
67052;BME280;53957;47.222;18.670;2024-03-17T13:10:18;100624.41;;;13.43;39.54
67052;BME280;53957;47.222;18.670;2024-03-17T13:13:20;100611.66;;;13.16;38.13
67052;BME280;53957;47.222;18.670;2024-03-17T13:16:22;100612.59;;;12.87;39.30
67052;BME280;53957;47.222;18.670;2024-03-17T13:19:24;100615.88;;;13.03;39.52
67052;BME280;53957;47.222;18.670;2024-03-17T13:22:26;100606.78;;;13.37;40.13
67052;BME280;53957;47.222;18.670;2024-03-17T13:25:29;100593.72;;;13.55;39.82
67052;BME280;53957;47.222;18.670;2024-03-17T13:28:36;100582.03;;;13.64;40.47
67052;BME280;53957;47.222;18.670;2024-03-17T13:31:38;100580.25;;;13.21;39.99
67052;BME280;53957;47.222;18.670;2024-03-17T13:34:40;100571.59;;;12.92;40.57
67052;BME280;53957;47.222;18.670;2024-03-17T13:37:42;100571.97;;;13.37;40.62
67052;BME280;53957;47.222;18.670;2024-03-17T13:40:44;100563.03;;;13.28;40.33
67052;BME280;53957;47.222;18.670;2024-03-17T13:43:46;100565.34;;;13.15;41.22
67052;BME280;53957;47.222;18.670;2024-03-17T13:46:48;100558.56;;;13.37;41.67
67052;BME280;53957;47.222;18.670;2024-03-17T13:49:50;100555.25;;;13.78;41.42
67052;BME280;53957;47.222;18.670;2024-03-17T13:52:53;100565.66;;;13.66;40.94
67052;BME280;53957;47.222;18.670;2024-03-17T15:24:03;100548.00;;;11.48;45.21
67052;BME280;53957;47.222;18.670;2024-03-17T15:27:05;100562.13;;;11.19;47.18
67052;BME280;53957;47.222;18.670;2024-03-17T15:30:11;100560.31;;;11.09;47.67
67052;BME280;53957;47.222;18.670;2024-03-17T15:33:16;100554.44;;;11.07;48.01
67052;BME280;53957;47.222;18.670;2024-03-17T15:36:18;100555.19;;;11.18;49.68
67052;BME280;53957;47.222;18.670;2024-03-17T15:39:21;100544.22;;;11.20;49.71
67052;BME280;53957;47.222;18.670;2024-03-17T15:42:23;100544.69;;;11.32;47.76
67052;BME280;53957;47.222;18.670;2024-03-17T15:45:26;100548.31;;;11.07;50.82
67052;BME280;53957;47.222;18.670;2024-03-17T15:48:28;100541.75;;;10.89;49.65
67052;BME280;53957;47.222;18.670;2024-03-17T15:51:31;100546.22;;;11.04;50.15
67052;BME280;53957;47.222;18.670;2024-03-17T15:54:34;100546.16;;;10.64;50.07
67052;BME280;53957;47.222;18.670;2024-03-17T15:57:36;100529.97;;;10.95;50.35
67052;BME280;53957;47.222;18.670;2024-03-17T16:00:38;100528.84;;;10.61;51.52
67052;BME280;53957;47.222;18.670;2024-03-17T16:03:43;100532.97;;;10.28;51.63
67052;BME280;53957;47.222;18.670;2024-03-17T16:06:46;100523.03;;;10.49;50.51
67052;BME280;53957;47.222;18.670;2024-03-17T16:09:48;100527.88;;;10.37;51.71
67052;BME280;53957;47.222;18.670;2024-03-17T16:12:51;100525.75;;;10.34;53.16
67052;BME280;53957;47.222;18.670;2024-03-17T16:15:57;100529.25;;;10.24;55.76
67052;BME280;53957;47.222;18.670;2024-03-17T16:19:00;100537.25;;;10.24;53.75
67052;BME280;53957;47.222;18.670;2024-03-17T16:22:05;100528.28;;;9.83;56.70
67052;BME280;53957;47.222;18.670;2024-03-17T16:25:10;100534.88;;;10.12;55.40
67052;BME280;53957;47.222;18.670;2024-03-17T16:28:13;100540.78;;;9.98;55.28
67052;BME280;53957;47.222;18.670;2024-03-17T16:31:17;100544.00;;;9.80;57.88
67052;BME280;53957;47.222;18.670;2024-03-17T16:34:20;100550.66;;;9.88;58.94
67052;BME280;53957;47.222;18.670;2024-03-17T16:37:26;100541.38;;;9.64;57.79
67052;BME280;53957;47.222;18.670;2024-03-17T16:40:28;100551.75;;;9.66;61.28
67052;BME280;53957;47.222;18.670;2024-03-17T16:43:45;100562.16;;;9.57;58.29
67052;BME280;53957;47.222;18.670;2024-03-17T16:50:10;100560.28;;;9.47;59.28
67052;BME280;53957;47.222;18.670;2024-03-17T16:53:13;100550.97;;;9.45;61.94
67052;BME280;53957;47.222;18.670;2024-03-17T16:56:16;100542.97;;;9.24;64.26
67052;BME280;53957;47.222;18.670;2024-03-17T16:59:20;100541.38;;;9.02;69.48
67052;BME280;53957;47.222;18.670;2024-03-17T17:02:23;100542.59;;;8.69;70.36
67052;BME280;53957;47.222;18.670;2024-03-17T17:05:28;100546.16;;;9.11;67.49
67052;BME280;53957;47.222;18.670;2024-03-17T17:08:34;100542.44;;;9.07;67.48
67052;BME280;53957;47.222;18.670;2024-03-17T17:11:36;100543.72;;;8.89;68.06
67052;BME280;53957;47.222;18.670;2024-03-17T17:14:38;100551.97;;;8.87;66.37
67052;BME280;53957;47.222;18.670;2024-03-17T17:17:46;100548.25;;;8.83;69.47
67052;BME280;53957;47.222;18.670;2024-03-17T17:20:58;100549.25;;;8.66;73.77
67052;BME280;53957;47.222;18.670;2024-03-17T17:24:00;100551.88;;;8.61;75.11
67052;BME280;53957;47.222;18.670;2024-03-17T17:27:06;100556.59;;;8.44;75.97
67052;BME280;53957;47.222;18.670;2024-03-17T17:30:12;100554.44;;;8.41;77.50
67052;BME280;53957;47.222;18.670;2024-03-17T17:33:36;100550.44;;;8.38;73.26
67052;BME280;53957;47.222;18.670;2024-03-17T17:36:39;100561.28;;;8.26;78.36
67052;BME280;53957;47.222;18.670;2024-03-17T17:39:41;100561.22;;;8.16;83.94
67052;BME280;53957;47.222;18.670;2024-03-17T17:42:44;100562.53;;;8.13;81.98
67052;BME280;53957;47.222;18.670;2024-03-17T17:45:46;100566.31;;;8.17;75.72
67052;BME280;53957;47.222;18.670;2024-03-17T17:48:48;100569.91;;;8.01;87.30
67052;BME280;53957;47.222;18.670;2024-03-17T17:51:50;100569.50;;;7.77;92.67
67052;BME280;53957;47.222;18.670;2024-03-17T17:54:53;100570.03;;;7.79;87.80
67052;BME280;53957;47.222;18.670;2024-03-17T17:57:56;100564.28;;;7.92;83.78
67052;BME280;53957;47.222;18.670;2024-03-17T18:01:02;100562.16;;;7.89;84.75
67052;BME280;53957;47.222;18.670;2024-03-17T18:04:25;100560.50;;;7.83;85.65
67052;BME280;53957;47.222;18.670;2024-03-17T18:07:44;100566.59;;;7.78;86.26
67052;BME280;53957;47.222;18.670;2024-03-17T18:10:59;100557.69;;;7.62;89.16
67052;BME280;53957;47.222;18.670;2024-03-17T18:14:02;100561.84;;;7.48;91.28
67052;BME280;53957;47.222;18.670;2024-03-17T18:17:09;100568.16;;;7.41;93.46
67052;BME280;53957;47.222;18.670;2024-03-17T18:20:12;100562.06;;;7.41;93.39
67052;BME280;53957;47.222;18.670;2024-03-17T18:23:15;100563.03;;;7.30;96.31
67052;BME280;53957;47.222;18.670;2024-03-17T18:26:25;100561.94;;;7.31;94.50
67052;BME280;53957;47.222;18.670;2024-03-17T18:29:27;100556.84;;;7.24;95.76
67052;BME280;53957;47.222;18.670;2024-03-17T18:32:29;100557.00;;;7.12;99.80
67052;BME280;53957;47.222;18.670;2024-03-17T18:35:32;100555.16;;;7.13;100.00
67052;BME280;53957;47.222;18.670;2024-03-17T18:38:35;100559.97;;;7.16;100.00
67052;BME280;53957;47.222;18.670;2024-03-17T18:41:40;100558.34;;;7.15;100.00
67052;BME280;53957;47.222;18.670;2024-03-17T18:44:45;100549.94;;;6.96;100.00
67052;BME280;53957;47.222;18.670;2024-03-17T18:47:49;100557.44;;;6.76;100.00
67052;BME280;53957;47.222;18.670;2024-03-17T18:51:31;100551.25;;;6.66;100.00
67052;BME280;53957;47.222;18.670;2024-03-17T18:54:47;100546.09;;;6.59;100.00
67052;BME280;53957;47.222;18.670;2024-03-17T18:57:52;100546.72;;;6.22;100.00
67052;BME280;53957;47.222;18.670;2024-03-17T19:01:05;100553.00;;;6.16;100.00
67052;BME280;53957;47.222;18.670;2024-03-17T19:04:07;100550.28;;;6.10;100.00
67052;BME280;53957;47.222;18.670;2024-03-17T19:07:15;100536.16;;;6.05;100.00
67052;BME280;53957;47.222;18.670;2024-03-17T19:10:17;100535.53;;;5.80;100.00
67052;BME280;53957;47.222;18.670;2024-03-17T19:13:22;100541.03;;;5.96;100.00
67052;BME280;53957;47.222;18.670;2024-03-17T19:16:25;100532.06;;;5.97;100.00
67052;BME280;53957;47.222;18.670;2024-03-17T19:19:27;100539.44;;;5.95;100.00
67052;BME280;53957;47.222;18.670;2024-03-17T19:22:29;100543.88;;;5.89;100.00
67052;BME280;53957;47.222;18.670;2024-03-17T19:25:36;100545.63;;;5.84;100.00
67052;BME280;53957;47.222;18.670;2024-03-17T19:28:39;100547.41;;;5.78;100.00
67052;BME280;53957;47.222;18.670;2024-03-17T19:31:44;100548.13;;;5.73;100.00
67052;BME280;53957;47.222;18.670;2024-03-17T19:34:49;100541.16;;;5.67;100.00
67052;BME280;53957;47.222;18.670;2024-03-17T19:37:51;100540.12;;;5.68;100.00
67052;BME280;53957;47.222;18.670;2024-03-17T19:40:57;100541.72;;;5.69;100.00
67052;BME280;53957;47.222;18.670;2024-03-17T19:44:00;100534.75;;;5.63;100.00
67052;BME280;53957;47.222;18.670;2024-03-17T19:47:02;100538.50;;;5.67;100.00
67052;BME280;53957;47.222;18.670;2024-03-17T19:50:05;100541.72;;;5.69;100.00
67052;BME280;53957;47.222;18.670;2024-03-17T19:53:07;100550.22;;;5.71;100.00
67052;BME280;53957;47.222;18.670;2024-03-17T19:56:10;100546.53;;;5.72;100.00
67052;BME280;53957;47.222;18.670;2024-03-17T19:59:12;100543.50;;;5.63;100.00
67052;BME280;53957;47.222;18.670;2024-03-17T20:02:14;100547.25;;;5.51;100.00
67052;BME280;53957;47.222;18.670;2024-03-17T20:05:16;100549.81;;;5.45;100.00
67052;BME280;53957;47.222;18.670;2024-03-17T20:08:20;100547.66;;;5.42;100.00
67052;BME280;53957;47.222;18.670;2024-03-17T20:11:23;100538.56;;;5.38;100.00
67052;BME280;53957;47.222;18.670;2024-03-17T20:14:25;100538.56;;;5.38;100.00
67052;BME280;53957;47.222;18.670;2024-03-17T20:17:27;100534.56;;;5.36;100.00
67052;BME280;53957;47.222;18.670;2024-03-17T20:20:29;100543.25;;;5.31;100.00
67052;BME280;53957;47.222;18.670;2024-03-17T20:23:32;100543.72;;;5.28;100.00
67052;BME280;53957;47.222;18.670;2024-03-17T20:26:36;100549.22;;;5.09;100.00
67052;BME280;53957;47.222;18.670;2024-03-17T20:29:41;100540.06;;;5.00;100.00
67052;BME280;53957;47.222;18.670;2024-03-17T20:32:43;100554.03;;;5.12;100.00
67052;BME280;53957;47.222;18.670;2024-03-17T20:35:45;100549.28;;;5.14;100.00
67052;BME280;53957;47.222;18.670;2024-03-17T20:38:47;100536.47;;;5.23;100.00
67052;BME280;53957;47.222;18.670;2024-03-17T20:41:50;100538.00;;;5.19;100.00
67052;BME280;53957;47.222;18.670;2024-03-17T20:44:52;100530.88;;;5.20;100.00
67052;BME280;53957;47.222;18.670;2024-03-17T20:47:54;100532.69;;;5.02;100.00
67052;BME280;53957;47.222;18.670;2024-03-17T20:51:03;100526.66;;;4.90;100.00
67052;BME280;53957;47.222;18.670;2024-03-17T20:54:05;100521.75;;;4.81;100.00
67052;BME280;53957;47.222;18.670;2024-03-17T20:57:07;100514.66;;;4.70;100.00
67052;BME280;53957;47.222;18.670;2024-03-17T21:00:10;100528.13;;;4.68;100.00
67052;BME280;53957;47.222;18.670;2024-03-17T21:03:21;100530.81;;;4.86;100.00
67052;BME280;53957;47.222;18.670;2024-03-17T21:06:23;100525.31;;;4.75;100.00
67052;BME280;53957;47.222;18.670;2024-03-17T21:09:28;100526.06;;;4.71;100.00
67052;BME280;53957;47.222;18.670;2024-03-17T21:12:30;100526.94;;;4.76;100.00
67052;BME280;53957;47.222;18.670;2024-03-17T21:15:32;100522.13;;;4.73;100.00
67052;BME280;53957;47.222;18.670;2024-03-17T21:18:34;100517.97;;;4.77;100.00
67052;BME280;53957;47.222;18.670;2024-03-17T21:21:36;100511.22;;;4.70;100.00
67052;BME280;53957;47.222;18.670;2024-03-17T21:24:38;100518.25;;;4.64;100.00
67052;BME280;53957;47.222;18.670;2024-03-17T21:27:41;100515.19;;;4.55;100.00
67052;BME280;53957;47.222;18.670;2024-03-17T21:30:59;100516.47;;;4.53;100.00
67052;BME280;53957;47.222;18.670;2024-03-17T21:34:01;100505.22;;;4.45;100.00
67052;BME280;53957;47.222;18.670;2024-03-17T21:37:04;100510.97;;;4.42;100.00
67052;BME280;53957;47.222;18.670;2024-03-17T21:40:07;100505.97;;;4.29;100.00
67052;BME280;53957;47.222;18.670;2024-03-17T21:43:09;100502.16;;;4.25;100.00
67052;BME280;53957;47.222;18.670;2024-03-17T21:46:14;100497.22;;;4.28;100.00
67052;BME280;53957;47.222;18.670;2024-03-17T21:49:16;100498.03;;;4.29;100.00
67052;BME280;53957;47.222;18.670;2024-03-17T21:52:18;100497.28;;;4.45;100.00
67052;BME280;53957;47.222;18.670;2024-03-17T21:55:21;100498.91;;;4.46;100.00
67052;BME280;53957;47.222;18.670;2024-03-17T21:58:23;100492.59;;;4.47;100.00
67052;BME280;53957;47.222;18.670;2024-03-17T22:01:25;100490.63;;;4.55;100.00
67052;BME280;53957;47.222;18.670;2024-03-17T22:04:28;100494.56;;;4.69;100.00
67052;BME280;53957;47.222;18.670;2024-03-17T22:07:31;100483.22;;;4.28;100.00
67052;BME280;53957;47.222;18.670;2024-03-17T22:10:34;100494.13;;;4.31;100.00
67052;BME280;53957;47.222;18.670;2024-03-17T22:13:35;100492.47;;;4.01;100.00
67052;BME280;53957;47.222;18.670;2024-03-17T22:16:38;100499.56;;;4.01;100.00
67052;BME280;53957;47.222;18.670;2024-03-17T22:19:40;100497.28;;;4.05;100.00
67052;BME280;53957;47.222;18.670;2024-03-17T22:22:42;100494.13;;;4.19;100.00
67052;BME280;53957;47.222;18.670;2024-03-17T22:25:51;100489.94;;;4.07;100.00
67052;BME280;53957;47.222;18.670;2024-03-17T22:28:56;100489.69;;;4.08;100.00
67052;BME280;53957;47.222;18.670;2024-03-17T22:31:58;100497.34;;;4.22;100.00
67052;BME280;53957;47.222;18.670;2024-03-17T22:35:00;100489.09;;;4.18;100.00
67052;BME280;53957;47.222;18.670;2024-03-17T22:38:02;100488.06;;;4.31;100.00
67052;BME280;53957;47.222;18.670;2024-03-17T22:41:07;100477.50;;;4.19;100.00
67052;BME280;53957;47.222;18.670;2024-03-17T22:44:10;100465.59;;;4.16;100.00
67052;BME280;53957;47.222;18.670;2024-03-17T22:47:12;100474.78;;;4.02;100.00
67052;BME280;53957;47.222;18.670;2024-03-17T22:50:14;100468.03;;;3.82;100.00
67052;BME280;53957;47.222;18.670;2024-03-17T22:53:20;100467.47;;;3.68;100.00
67052;BME280;53957;47.222;18.670;2024-03-17T22:56:23;100465.53;;;3.64;100.00
67052;BME280;53957;47.222;18.670;2024-03-17T22:59:29;100461.75;;;3.60;100.00
67052;BME280;53957;47.222;18.670;2024-03-17T23:02:31;100461.66;;;3.54;100.00
67052;BME280;53957;47.222;18.670;2024-03-17T23:05:33;100451.66;;;3.57;100.00
67052;BME280;53957;47.222;18.670;2024-03-17T23:08:36;100445.69;;;3.49;100.00
67052;BME280;53957;47.222;18.670;2024-03-17T23:11:41;100451.78;;;3.50;100.00
67052;BME280;53957;47.222;18.670;2024-03-17T23:14:43;100448.56;;;3.48;100.00
67052;BME280;53957;47.222;18.670;2024-03-17T23:17:46;100437.44;;;3.46;100.00
67052;BME280;53957;47.222;18.670;2024-03-17T23:20:48;100443.84;;;3.26;100.00
67052;BME280;53957;47.222;18.670;2024-03-17T23:23:50;100445.44;;;3.15;100.00
67052;BME280;53957;47.222;18.670;2024-03-17T23:26:52;100442.56;;;3.05;100.00
67052;BME280;53957;47.222;18.670;2024-03-17T23:29:54;100436.59;;;3.10;100.00
67052;BME280;53957;47.222;18.670;2024-03-17T23:32:56;100435.12;;;3.14;100.00
67052;BME280;53957;47.222;18.670;2024-03-17T23:35:58;100437.88;;;3.07;100.00
67052;BME280;53957;47.222;18.670;2024-03-17T23:39:00;100433.84;;;3.04;100.00
67052;BME280;53957;47.222;18.670;2024-03-17T23:42:02;100433.75;;;3.11;100.00
67052;BME280;53957;47.222;18.670;2024-03-17T23:45:06;100433.41;;;3.19;100.00
67052;BME280;53957;47.222;18.670;2024-03-17T23:48:12;100432.50;;;3.14;100.00
67052;BME280;53957;47.222;18.670;2024-03-17T23:51:14;100428.69;;;3.10;100.00
67052;BME280;53957;47.222;18.670;2024-03-17T23:54:16;100429.41;;;3.05;100.00
67052;BME280;53957;47.222;18.670;2024-03-17T23:57:18;100431.75;;;2.95;100.00
